Details From HTZA - ZANZIBAR
To HTDA - MWALIMU JULIUS K NYERERE INTL
Flight Number -
Tags generated
Created
Modified
Stats Distance 41 nm / 76 km
Max Altitude 200 ft / 61 m
Waypoints 3
Social Downloads 2
Likes 0
Share

Download

Looking for another format? Having issues loading an existing format? Contact us
Advertisement - Login to hide

Notes

Basic altitude profile: - Ascent Rate: 280ft/min - Ascent Speed: 200kts - Cruise Altitude: 1000ft - Cruise Speed: 350kts - Descent Rate: 1500ft/min - Descent Speed: 200kts Options: - Use NATs: yes - Use PACOTS: yes - Use low airways: yes - Use high airways: yes

Route

HTZA DV HTDA

ID Type Via Altitude (ft/m) Position (lat/lon) Dist (leg/tot) Name
O HTZA APT - 0 / 0 -6.22202 / 39.22488 - / 0 nm ZANZIBAR
DV VOR - 200 / 61 -6.88865 / 39.19271 40 / 40 nm DAR ES SALAAM VOR-DME
O HTDA APT - 0 / 0 -6.87505 / 39.20426 1 / 41 nm MWALIMU JULIUS K NYERERE INTL

Altitude Profile

Advertisement - Login to hide

HTZA

Details ICAO HTZA (ZNZ)
Name Abeid Amani Karume Intl
Region Tanzania
Timezone Africa/Dar_es_Salaam (UTC+3.0)
Stats Elevation 54 ft / 16 m (AMSL)
Location -6.224530° 39.225100°
Runways 1
Magnetic Variation 1.779° W

METAR

HTZA 261800Z 14009KT 9999 FEW020 27/23 Q1015 NOSIG

Decode

TAF

HTZA 261700Z 2618/2718 15005KT 9999 FEW015 BECMG 2703/2705 21010KT BKN016 BECMG 2710/2712 15015KT FEW020

Decode

Departure Runways

ID Width Length Bearing (true/mag) Surface Threshold Overrun Markings Lighting
18 148 ft / 45 m 9,977 ft / 3,041 m 174.31° / 176.09° ASPHALT 0 ft / 0 m 197 ft / 60 m PREC-APP EDGE THRESHOLD SALS REIL-OMNI
36 148 ft / 45 m 9,977 ft / 3,041 m 354.31° / 356.09° ASPHALT 0 ft / 0 m 197 ft / 60 m PREC-APP EDGE THRESHOLD SALS REIL-OMNI

HTDA

Details ICAO HTDA (DAR)
Name Dar Es Salaam-Julius Nyerere Intl
Region Tanzania
Timezone Africa/Dar_es_Salaam (UTC+3.0)
Stats Elevation 182 ft / 55 m (AMSL)
Location -6.874990° 39.204400°
Runways 2
Magnetic Variation 2.109° W

METAR

HTDA 261800Z 16004KT 9999 FEW012 26/23 Q1016 NOSIG

Decode

TAF

TAF TAF HTDA 261700Z 2612/2718 16005KT 9999 SCT014 BECMG 2711/2714 14015KT

Decode

Destination Runways

ID Width Length Bearing (true/mag) Surface Threshold Overrun Markings Lighting
05 151 ft / 46 m 9,880 ft / 3,011 m 44.82° / 46.93° ASPHALT 0 ft / 0 m 190 ft / 58 m PREC-APP EDGE THRESHOLD ALSF-I REIL-OMNI
14 98 ft / 30 m 3,304 ft / 1,007 m 135.19° / 137.30° ASPHALT 0 ft / 0 m 0 ft / 0 m APP
23 151 ft / 46 m 9,880 ft / 3,011 m 224.82° / 226.93° ASPHALT 0 ft / 0 m 187 ft / 57 m PREC-APP EDGE THRESHOLD REIL-OMNI
32 98 ft / 30 m 3,304 ft / 1,007 m 315.19° / 317.30° ASPHALT 0 ft / 0 m 0 ft / 0 m VISUAL

Approach Navaids

Runway Type Ident Frequency Range Bearing (true/mag) Slope Elevation
05 MM MM - - 44.94° / 47.05 ° - 182 ft / 55 m (AMSL)
05 GS DL 110.50 MHz 10 nm / 19 km 44.81° / 46.92 ° 3.00° 182 ft / 55 m (AMSL)
05 OM OM - - 44.94° / 47.05 ° - 182 ft / 55 m (AMSL)
05 LOC-ILS DL 110.50 MHz 18 nm / 33 km 44.81° / 46.92 ° - 182 ft / 55 m (AMSL)

Popular Alternatives